Weather reports worldwide

Advertisment
Cadiz, Spain (8452): temperature & dewpoint: 23.10.2020 12:00:00 - 29.10.2020 12:00:00 (CET)Cadiz, Spain (8452): wind speed & gusts: 23.10.2020 12:00:00 - 29.10.2020 12:00:00 (CET)Cadiz, Spain (8452): wind direction: 23.10.2020 12:00:00 - 29.10.2020 12:00:00 (CET)Cadiz, Spain (8452): reduced air pressure: 23.10.2020 12:00:00 - 29.10.2020 12:00:00 (CET)Cadiz, Spain (8452): precipitation: 23.10.2020 12:00:00 - 29.10.2020 12:00:00 (CET)
Date & Time tt [°C] td [°C] ff [km/h] ff [kn] fx [km/h] fx [kn] dd ppp [hPa] rr [mm]
29.10.2020 12:00:00 - - - - - - - - -
29.10.2020 11:00:00 18,4 12,1 10 5 12 7 N 1024,9 0,0
29.10.2020 10:00:00 17,3 11,1 6 4 10 5 N 1024,9 0,0
29.10.2020 09:00:00 15,8 11,0 5 3 9 5 N 1024,3 0,0
29.10.2020 08:00:00 15,6 11,0 6 4 10 5 NNE 1023,7 0,0
29.10.2020 07:00:00 15,5 10,6 4 2 11 6 NNE 1023,3 -
29.10.2020 06:00:00 16,2 8,9 7 4 11 6 NE 1023,0 0,0
29.10.2020 05:00:00 15,7 12,1 2 1 12 6 NE 1022,8 0,0
29.10.2020 04:00:00 16,5 13,3 8 4 12 7 NNE 1022,7 0,0
29.10.2020 03:00:00 16,8 12,5 6 3 9 5 NNE 1022,8 0,0
29.10.2020 02:00:00 17,2 12,7 8 4 11 6 NE 1022,9 0,0
29.10.2020 01:00:00 16,8 13,2 5 3 18 10 NE 1023,2 -
29.10.2020 00:00:00 18,3 15,7 16 9 21 11 N 1023,2 0,0
28.10.2020 23:00:00 18,6 15,6 16 8 22 12 NNW 1023,3 0,0
28.10.2020 22:00:00 18,7 15,3 16 9 22 12 NNW 1023,4 0,0
28.10.2020 21:00:00 18,8 15,3 16 8 20 11 NNW 1023,2 0,0
28.10.2020 20:00:00 18,9 14,6 14 7 19 10 NNW 1022,7 0,0
28.10.2020 19:00:00 19,5 14,5 11 6 19 11 NNW 1022,2 -
28.10.2020 18:00:00 21,0 13,9 13 7 22 12 N 1022,0 0,0
28.10.2020 17:00:00 21,1 13,6 16 9 28 15 N 1021,9 0,0
28.10.2020 16:00:00 20,8 13,8 18 10 29 16 N 1021,9 0,0
28.10.2020 15:00:00 20,6 12,5 23 12 30 16 N 1022,2 0,0
28.10.2020 14:00:00 20,3 12,3 21 12 29 16 N 1022,4 0,0
28.10.2020 13:00:00 19,9 11,7 21 12 26 14 N 1023,0 -
28.10.2020 12:00:00 18,6 11,9 18 10 24 13 N 1023,4 0,0
28.10.2020 11:00:00 17,5 11,3 17 9 21 11 N 1023,4 0,0
28.10.2020 10:00:00 16,5 11,0 16 9 20 11 N 1023,0 0,0
28.10.2020 09:00:00 15,5 10,5 13 7 16 9 N 1022,4 0,0
28.10.2020 08:00:00 13,7 9,6 11 6 17 9 N 1022,0 0,0
28.10.2020 07:00:00 13,4 9,8 13 7 18 10 N 1021,6 -
28.10.2020 06:00:00 14,1 10,9 11 6 16 8 N 1021,4 0,0
28.10.2020 05:00:00 14,0 11,3 9 5 13 7 N 1021,2 0,0
28.10.2020 04:00:00 13,9 10,5 7 4 16 8 NNE 1021,4 0,0
28.10.2020 03:00:00 15,9 11,4 16 9 23 12 N 1021,3 0,0
28.10.2020 02:00:00 17,4 13,0 17 9 23 12 NNW 1021,4 0,0
28.10.2020 01:00:00 17,8 13,1 12 6 16 9 NW 1021,9 -
28.10.2020 00:00:00 17,7 12,1 6 4 15 8 NW 1022,2 0,0
27.10.2020 23:00:00 17,7 12,1 9 5 16 9 NW 1022,2 0,0
27.10.2020 22:00:00 17,6 11,4 9 5 18 10 NW 1022,3 0,0
27.10.2020 21:00:00 17,7 10,8 10 6 19 10 NW 1022,2 0,0
27.10.2020 20:00:00 17,6 10,5 10 5 16 9 NW 1022,1 0,0
27.10.2020 19:00:00 17,7 10,0 11 6 21 11 NW 1021,6 -
27.10.2020 18:00:00 18,0 10,9 13 7 25 13 NW 1021,1 0,0
27.10.2020 17:00:00 18,2 10,5 16 9 27 15 WNW 1021,5 0,0
27.10.2020 16:00:00 18,3 10,2 16 9 24 13 WNW 1021,5 0,0
27.10.2020 15:00:00 18,6 10,2 15 8 22 12 W 1021,7 0,0
27.10.2020 14:00:00 18,4 10,3 13 7 21 11 WNW 1022,3 0,0
27.10.2020 13:00:00 18,0 8,8 10 5 16 9 NNW 1023,3 -
27.10.2020 12:00:00 17,3 10,2 9 5 14 8 NNW 1023,8 0,0
27.10.2020 11:00:00 16,3 9,4 10 5 16 8 N 1023,9 0,0
27.10.2020 10:00:00 14,8 9,6 7 4 14 7 NNE 1023,5 0,0
27.10.2020 09:00:00 13,0 9,0 5 3 10 5 N 1023,4 0,0
27.10.2020 08:00:00 12,8 9,8 9 5 14 8 NNE 1022,8 0,0
27.10.2020 07:00:00 13,3 9,7 11 6 19 10 N 1022,4 -
27.10.2020 06:00:00 13,7 9,7 8 4 11 6 N 1022,5 0,0
27.10.2020 05:00:00 13,9 8,9 8 5 12 6 N 1022,2 0,0
27.10.2020 04:00:00 14,6 9,4 10 5 16 9 N 1022,3 0,0
27.10.2020 03:00:00 15,7 9,6 12 7 16 9 N 1022,7 0,0
27.10.2020 02:00:00 16,7 9,8 14 8 18 10 N 1023,0 0,0
27.10.2020 01:00:00 16,6 10,0 10 6 18 10 N 1023,4 -
27.10.2020 00:00:00 17,9 10,3 14 8 19 11 NNW 1023,8 0,0
26.10.2020 23:00:00 18,0 8,8 13 7 20 11 NW 1023,9 0,0
26.10.2020 22:00:00 18,0 8,3 11 6 27 15 NW 1023,6 0,0
26.10.2020 21:00:00 18,0 9,3 14 8 22 12 WNW 1023,2 0,0
26.10.2020 20:00:00 17,8 9,7 11 6 23 12 WNW 1023,0 0,0
26.10.2020 19:00:00 17,8 9,7 13 7 23 12 WNW 1022,6 -
26.10.2020 18:00:00 18,2 9,3 15 8 33 18 WNW 1022,3 0,0
26.10.2020 17:00:00 18,6 9,7 19 10 37 20 WNW 1022,1 0,0
26.10.2020 16:00:00 18,3 9,7 20 11 34 18 NW 1022,2 0,0
26.10.2020 15:00:00 18,2 9,6 21 11 34 18 WNW 1022,0 0,0
26.10.2020 14:00:00 17,8 10,4 19 11 30 16 WNW 1022,5 0,0
26.10.2020 13:00:00 17,3 10,9 17 9 32 17 NW 1023,3 -
26.10.2020 12:00:00 17,3 10,4 19 10 32 17 NNW 1023,4 0,0
26.10.2020 11:00:00 17,3 11,3 20 11 30 16 NNW 1023,0 0,0
26.10.2020 10:00:00 16,8 12,5 19 11 26 14 N 1022,7 0,0
26.10.2020 09:00:00 16,0 12,5 21 11 26 14 N 1022,3 0,0
26.10.2020 08:00:00 15,7 12,1 16 9 27 15 NNW 1021,5 0,0
26.10.2020 07:00:00 15,9 12,2 21 12 31 17 N 1021,0 -
26.10.2020 06:00:00 16,9 12,4 22 12 31 17 NNW 1020,6 0,0
26.10.2020 05:00:00 17,4 13,8 21 11 32 17 NNW 1020,0 0,0
26.10.2020 04:00:00 17,6 13,4 17 9 32 17 NW 1020,1 0,0
26.10.2020 03:00:00 18,1 14,4 22 12 36 20 NW 1020,1 0,0
26.10.2020 02:00:00 17,6 15,6 14 8 26 14 WNW 1019,9 0,2
26.10.2020 01:00:00 16,5 15,5 22 12 46 25 NW 1019,8 -
26.10.2020 00:00:00 18,4 16,7 23 13 46 25 WNW 1019,8 2,4
25.10.2020 23:00:00 20,3 17,1 21 12 37 20 SW 1019,6 0,0
25.10.2020 22:00:00 20,2 16,6 19 10 37 20 SW 1019,8 0,0
25.10.2020 21:00:00 19,7 16,3 19 11 37 20 SW 1020,2 0,0
25.10.2020 20:00:00 20,1 15,5 16 9 34 19 SW 1020,5 0,0
25.10.2020 19:00:00 19,9 15,3 16 8 34 18 SW 1020,6 -
25.10.2020 18:00:00 20,4 15,2 16 9 31 17 WSW 1020,8 0,0
25.10.2020 17:00:00 20,7 15,3 17 9 30 16 SW 1020,7 0,0
25.10.2020 16:00:00 21,4 14,5 16 9 26 14 SW 1021,0 0,0
25.10.2020 15:00:00 21,7 14,3 16 9 27 15 WSW 1021,6 0,0
25.10.2020 14:00:00 20,6 14,9 8 4 28 15 WSW 1022,4 0,0
25.10.2020 13:00:00 20,0 14,8 5 3 9 5 S 1023,2 -
25.10.2020 12:00:00 19,1 14,1 5 3 7 4 SE 1023,8 0,0
25.10.2020 11:00:00 18,3 14,6 5 3 8 5 ESE 1023,9 0,0
25.10.2020 10:00:00 17,4 14,1 5 3 10 5 E 1024,2 0,0
25.10.2020 09:00:00 16,4 13,9 4 2 9 5 ENE 1023,5 0,0
25.10.2020 08:00:00 16,6 14,0 5 3 14 8 ENE 1023,4 0,0
25.10.2020 07:00:00 17,3 14,2 9 5 15 8 NNW 1023,2 -
25.10.2020 06:00:00 17,4 14,7 8 4 12 7 WNW 1023,1 0,0
25.10.2020 05:00:00 17,3 13,1 7 4 13 7 WSW 1023,1 0,0
25.10.2020 04:00:00 16,7 14,9 3 2 7 4 E 1023,5 0,0
25.10.2020 03:00:00 17,0 14,4 4 2 8 4 E 1024,2 0,0
25.10.2020 02:00:00 17,5 12,2 4 2 11 6 W 1024,7 0,0
25.10.2020 01:00:00 - - - - - - - - -
25.10.2020 00:00:00 17,0 14,4 4 2 6 3 WSW 1025,5 0,0
24.10.2020 23:00:00 17,4 14,3 3 1 8 5 W 1025,9 0,0
24.10.2020 22:00:00 17,7 14,4 4 2 8 5 W 1025,8 0,0
24.10.2020 21:00:00 18,2 14,9 6 3 11 6 W 1025,8 0,0
24.10.2020 20:00:00 18,3 15,2 7 4 13 7 W 1025,9 0,0
24.10.2020 19:00:00 18,6 14,0 9 5 19 11 WNW 1025,6 -
24.10.2020 18:00:00 19,2 15,4 11 6 20 11 WNW 1025,5 0,0
24.10.2020 17:00:00 20,5 16,3 11 6 19 10 W 1025,8 0,0
24.10.2020 16:00:00 21,0 15,8 10 5 18 10 W 1026,0 0,0
24.10.2020 15:00:00 21,5 16,0 10 6 18 10 W 1026,4 0,0
24.10.2020 14:00:00 21,6 16,7 6 4 17 9 S 1026,9 0,0
24.10.2020 13:00:00 - - - - - - - - -
24.10.2020 12:00:00 21,5 15,8 5 3 10 5 S 1027,8 0,0
24.10.2020 11:00:00 19,8 15,6 3 2 6 3 ESE 1027,9 0,0
24.10.2020 10:00:00 18,4 15,4 4 2 6 3 E 1027,9 0,0
24.10.2020 09:00:00 17,1 15,4 3 1 6 3 ENE 1027,4 0,0
24.10.2020 08:00:00 15,7 14,6 3 2 8 4 E 1026,7 0,0
24.10.2020 07:00:00 15,5 14,3 3 2 5 3 ENE 1026,6 -
24.10.2020 06:00:00 15,7 14,4 3 1 5 3 ENE 1026,6 0,0
24.10.2020 05:00:00 16,0 14,7 2 1 4 2 NE 1026,4 0,0
24.10.2020 04:00:00 16,4 15,1 3 2 6 3 NE 1026,7 0,0
24.10.2020 03:00:00 16,8 15,2 3 2 7 4 ENE 1026,9 0,0
24.10.2020 02:00:00 17,1 15,4 4 2 8 5 E 1026,9 0,0
24.10.2020 01:00:00 18,0 16,1 5 3 7 4 E 1027,1 -
24.10.2020 00:00:00 18,6 16,6 5 3 7 4 E 1027,1 0,0
23.10.2020 23:00:00 18,6 15,4 0 0 7 4 WNW 1027,1 0,0
23.10.2020 22:00:00 19,1 15,5 4 2 10 5 W 1026,6 0,0
23.10.2020 21:00:00 19,0 15,4 5 3 10 5 W 1026,1 0,0
23.10.2020 20:00:00 19,1 15,5 5 3 11 6 WSW 1025,9 0,0
23.10.2020 19:00:00 19,5 16,1 5 3 10 5 S 1025,0 -
23.10.2020 18:00:00 20,6 15,8 6 3 11 6 SSW 1025,0 0,0
23.10.2020 17:00:00 21,6 15,9 6 3 16 8 S 1025,2 0,0
23.10.2020 16:00:00 21,8 15,4 6 4 13 7 SSW 1025,0 0,0
23.10.2020 15:00:00 22,6 15,0 5 3 12 6 SSW 1024,8 0,0
23.10.2020 14:00:00 22,0 14,4 3 2 11 6 W 1024,8 0,0
23.10.2020 13:00:00 21,8 14,9 5 3 10 5 S 1024,9 -
23.10.2020 12:00:00 20,6 14,7 3 2 8 5 NE 1025,0 0,0

tt = temperature
td = dewpoint
ff = wind speed
fx = gusts
dd = wind direction
ppp = reduced air pressure
rr = precipitation

Next stations